sensor_id;sensor_type;location;lat;lon;timestamp;P1;durP1;ratioP1;P2;durP2;ratioP2
5379;SDS011;2713;42.680;23.310;2023-05-28T00:01:15;9.00;;;7.50;;
5379;SDS011;2713;42.680;23.310;2023-05-28T00:03:42;8.83;;;7.63;;
5379;SDS011;2713;42.680;23.310;2023-05-28T00:06:09;9.10;;;7.43;;
5379;SDS011;2713;42.680;23.310;2023-05-28T00:08:37;7.97;;;6.70;;
5379;SDS011;2713;42.680;23.310;2023-05-28T00:11:04;8.40;;;6.90;;
5379;SDS011;2713;42.680;23.310;2023-05-28T00:13:30;8.20;;;6.67;;
5379;SDS011;2713;42.680;23.310;2023-05-28T00:15:58;8.20;;;7.20;;
5379;SDS011;2713;42.680;23.310;2023-05-28T00:18:25;8.63;;;6.40;;
5379;SDS011;2713;42.680;23.310;2023-05-28T00:20:53;7.40;;;6.70;;
5379;SDS011;2713;42.680;23.310;2023-05-28T00:23:20;6.97;;;6.07;;
5379;SDS011;2713;42.680;23.310;2023-05-28T00:25:47;6.70;;;6.10;;
5379;SDS011;2713;42.680;23.310;2023-05-28T00:28:14;7.27;;;6.57;;
5379;SDS011;2713;42.680;23.310;2023-05-28T00:30:41;8.40;;;6.80;;
5379;SDS011;2713;42.680;23.310;2023-05-28T00:33:09;8.97;;;6.63;;
5379;SDS011;2713;42.680;23.310;2023-05-28T00:35:36;7.50;;;6.80;;
5379;SDS011;2713;42.680;23.310;2023-05-28T00:38:03;8.00;;;6.63;;
5379;SDS011;2713;42.680;23.310;2023-05-28T00:40:30;9.17;;;7.43;;
5379;SDS011;2713;42.680;23.310;2023-05-28T00:42:57;7.17;;;6.50;;
5379;SDS011;2713;42.680;23.310;2023-05-28T00:45:24;8.30;;;6.20;;
5379;SDS011;2713;42.680;23.310;2023-05-28T00:47:51;8.03;;;5.97;;
5379;SDS011;2713;42.680;23.310;2023-05-28T00:50:19;6.50;;;5.90;;
5379;SDS011;2713;42.680;23.310;2023-05-28T00:52:46;6.33;;;5.73;;
5379;SDS011;2713;42.680;23.310;2023-05-28T00:55:15;6.40;;;5.80;;
5379;SDS011;2713;42.680;23.310;2023-05-28T00:57:43;7.73;;;6.50;;
5379;SDS011;2713;42.680;23.310;2023-05-28T01:00:12;7.20;;;6.50;;
5379;SDS011;2713;42.680;23.310;2023-05-28T01:02:40;6.73;;;6.13;;
5379;SDS011;2713;42.680;23.310;2023-05-28T01:05:07;6.10;;;5.60;;
5379;SDS011;2713;42.680;23.310;2023-05-28T01:07:36;6.03;;;5.53;;
5379;SDS011;2713;42.680;23.310;2023-05-28T01:10:03;6.50;;;5.90;;
5379;SDS011;2713;42.680;23.310;2023-05-28T01:12:31;7.13;;;6.20;;
5379;SDS011;2713;42.680;23.310;2023-05-28T01:15:00;6.03;;;5.53;;
5379;SDS011;2713;42.680;23.310;2023-05-28T01:17:27;7.13;;;6.20;;
5379;SDS011;2713;42.680;23.310;2023-05-28T01:19:56;8.10;;;5.80;;
5379;SDS011;2713;42.680;23.310;2023-05-28T01:22:31;6.17;;;5.57;;
5379;SDS011;2713;42.680;23.310;2023-05-28T01:25:06;6.70;;;6.10;;
5379;SDS011;2713;42.680;23.310;2023-05-28T01:27:38;5.67;;;5.00;;
5379;SDS011;2713;42.680;23.310;2023-05-28T01:30:06;5.87;;;5.37;;
5379;SDS011;2713;42.680;23.310;2023-05-28T01:32:35;6.40;;;5.73;;
5379;SDS011;2713;42.680;23.310;2023-05-28T01:35:03;5.60;;;5.10;;
5379;SDS011;2713;42.680;23.310;2023-05-28T01:37:32;5.67;;;5.17;;
5379;SDS011;2713;42.680;23.310;2023-05-28T01:40:01;6.23;;;5.20;;
5379;SDS011;2713;42.680;23.310;2023-05-28T01:42:30;7.37;;;5.87;;
5379;SDS011;2713;42.680;23.310;2023-05-28T01:44:59;6.23;;;5.53;;
5379;SDS011;2713;42.680;23.310;2023-05-28T01:47:33;7.50;;;5.40;;
5379;SDS011;2713;42.680;23.310;2023-05-28T01:50:01;5.90;;;5.10;;
5379;SDS011;2713;42.680;23.310;2023-05-28T01:52:28;9.47;;;6.20;;
5379;SDS011;2713;42.680;23.310;2023-05-28T01:54:55;5.83;;;5.33;;
5379;SDS011;2713;42.680;23.310;2023-05-28T01:57:22;7.90;;;6.10;;
5379;SDS011;2713;42.680;23.310;2023-05-28T01:59:50;6.67;;;5.87;;
5379;SDS011;2713;42.680;23.310;2023-05-28T02:02:17;6.17;;;5.57;;
5379;SDS011;2713;42.680;23.310;2023-05-28T02:04:45;7.30;;;5.63;;
5379;SDS011;2713;42.680;23.310;2023-05-28T02:07:12;7.00;;;6.30;;
5379;SDS011;2713;42.680;23.310;2023-05-28T02:09:38;6.90;;;6.20;;
5379;SDS011;2713;42.680;23.310;2023-05-28T02:12:07;6.93;;;6.33;;
5379;SDS011;2713;42.680;23.310;2023-05-28T02:14:35;6.20;;;5.60;;
5379;SDS011;2713;42.680;23.310;2023-05-28T02:17:03;6.70;;;6.10;;
5379;SDS011;2713;42.680;23.310;2023-05-28T02:19:30;6.07;;;5.43;;
5379;SDS011;2713;42.680;23.310;2023-05-28T02:21:58;6.10;;;5.60;;
5379;SDS011;2713;42.680;23.310;2023-05-28T02:24:25;6.13;;;5.63;;
5379;SDS011;2713;42.680;23.310;2023-05-28T02:26:53;7.10;;;6.40;;
5379;SDS011;2713;42.680;23.310;2023-05-28T02:29:20;6.17;;;5.67;;
5379;SDS011;2713;42.680;23.310;2023-05-28T02:31:47;8.33;;;5.87;;
5379;SDS011;2713;42.680;23.310;2023-05-28T02:34:15;6.00;;;5.40;;
5379;SDS011;2713;42.680;23.310;2023-05-28T02:36:41;8.03;;;5.53;;
5379;SDS011;2713;42.680;23.310;2023-05-28T02:39:08;6.00;;;5.50;;
5379;SDS011;2713;42.680;23.310;2023-05-28T02:41:36;7.03;;;6.33;;
5379;SDS011;2713;42.680;23.310;2023-05-28T02:44:02;6.80;;;6.13;;
5379;SDS011;2713;42.680;23.310;2023-05-28T02:46:30;6.10;;;5.60;;
5379;SDS011;2713;42.680;23.310;2023-05-28T02:48:57;6.80;;;5.87;;
5379;SDS011;2713;42.680;23.310;2023-05-28T02:51:28;8.23;;;6.00;;
5379;SDS011;2713;42.680;23.310;2023-05-28T02:54:05;6.57;;;5.50;;
5379;SDS011;2713;42.680;23.310;2023-05-28T02:56:33;7.50;;;6.00;;
5379;SDS011;2713;42.680;23.310;2023-05-28T02:58:59;6.73;;;5.80;;
5379;SDS011;2713;42.680;23.310;2023-05-28T03:01:26;7.70;;;6.10;;
5379;SDS011;2713;42.680;23.310;2023-05-28T03:03:54;6.40;;;5.90;;
5379;SDS011;2713;42.680;23.310;2023-05-28T03:06:21;6.37;;;5.70;;
5379;SDS011;2713;42.680;23.310;2023-05-28T03:08:54;8.13;;;5.43;;
5379;SDS011;2713;42.680;23.310;2023-05-28T03:11:21;6.00;;;5.40;;
5379;SDS011;2713;42.680;23.310;2023-05-28T03:13:49;6.80;;;5.70;;
5379;SDS011;2713;42.680;23.310;2023-05-28T03:16:16;5.97;;;5.40;;
5379;SDS011;2713;42.680;23.310;2023-05-28T03:18:43;6.23;;;5.67;;
5379;SDS011;2713;42.680;23.310;2023-05-28T03:21:10;5.83;;;5.33;;
5379;SDS011;2713;42.680;23.310;2023-05-28T03:23:37;6.20;;;5.70;;
5379;SDS011;2713;42.680;23.310;2023-05-28T03:26:11;6.50;;;5.63;;
5379;SDS011;2713;42.680;23.310;2023-05-28T03:28:38;6.00;;;5.50;;
5379;SDS011;2713;42.680;23.310;2023-05-28T03:31:16;6.80;;;6.00;;
5379;SDS011;2713;42.680;23.310;2023-05-28T03:33:43;6.50;;;5.90;;
5379;SDS011;2713;42.680;23.310;2023-05-28T03:36:11;5.97;;;5.47;;
5379;SDS011;2713;42.680;23.310;2023-05-28T03:38:39;6.53;;;5.90;;
5379;SDS011;2713;42.680;23.310;2023-05-28T03:41:06;9.63;;;5.77;;
5379;SDS011;2713;42.680;23.310;2023-05-28T03:43:34;5.90;;;5.40;;
5379;SDS011;2713;42.680;23.310;2023-05-28T03:46:01;6.20;;;5.70;;
5379;SDS011;2713;42.680;23.310;2023-05-28T03:48:28;6.07;;;5.53;;
5379;SDS011;2713;42.680;23.310;2023-05-28T03:50:56;6.83;;;6.17;;
5379;SDS011;2713;42.680;23.310;2023-05-28T03:53:23;6.80;;;6.20;;
5379;SDS011;2713;42.680;23.310;2023-05-28T03:55:49;7.90;;;6.67;;
5379;SDS011;2713;42.680;23.310;2023-05-28T03:58:17;6.20;;;5.70;;
5379;SDS011;2713;42.680;23.310;2023-05-28T04:00:46;6.10;;;5.60;;
5379;SDS011;2713;42.680;23.310;2023-05-28T04:03:12;6.77;;;6.07;;
5379;SDS011;2713;42.680;23.310;2023-05-28T04:05:41;5.80;;;5.30;;
5379;SDS011;2713;42.680;23.310;2023-05-28T04:08:08;6.60;;;6.00;;
5379;SDS011;2713;42.680;23.310;2023-05-28T04:10:35;6.80;;;6.13;;
5379;SDS011;2713;42.680;23.310;2023-05-28T04:13:02;9.67;;;5.70;;
5379;SDS011;2713;42.680;23.310;2023-05-28T04:15:29;6.17;;;5.67;;
5379;SDS011;2713;42.680;23.310;2023-05-28T04:17:58;6.57;;;5.90;;
5379;SDS011;2713;42.680;23.310;2023-05-28T04:20:24;6.67;;;6.17;;
5379;SDS011;2713;42.680;23.310;2023-05-28T04:22:51;6.50;;;6.00;;
5379;SDS011;2713;42.680;23.310;2023-05-28T04:25:18;6.53;;;5.93;;
5379;SDS011;2713;42.680;23.310;2023-05-28T04:27:45;7.50;;;6.50;;
5379;SDS011;2713;42.680;23.310;2023-05-28T04:30:13;8.37;;;6.20;;
5379;SDS011;2713;42.680;23.310;2023-05-28T04:32:40;7.63;;;6.00;;
5379;SDS011;2713;42.680;23.310;2023-05-28T04:35:08;6.93;;;6.33;;
5379;SDS011;2713;42.680;23.310;2023-05-28T04:37:37;7.30;;;6.60;;
5379;SDS011;2713;42.680;23.310;2023-05-28T04:40:05;7.73;;;6.90;;
5379;SDS011;2713;42.680;23.310;2023-05-28T04:42:34;7.53;;;6.70;;
5379;SDS011;2713;42.680;23.310;2023-05-28T04:45:01;7.47;;;6.33;;
5379;SDS011;2713;42.680;23.310;2023-05-28T04:47:29;8.57;;;6.97;;
5379;SDS011;2713;42.680;23.310;2023-05-28T04:49:56;7.60;;;6.87;;
5379;SDS011;2713;42.680;23.310;2023-05-28T04:52:25;6.83;;;6.13;;
5379;SDS011;2713;42.680;23.310;2023-05-28T04:54:52;6.80;;;6.13;;
5379;SDS011;2713;42.680;23.310;2023-05-28T04:57:19;7.77;;;6.80;;
5379;SDS011;2713;42.680;23.310;2023-05-28T04:59:46;8.57;;;6.90;;
5379;SDS011;2713;42.680;23.310;2023-05-28T05:02:13;7.97;;;6.03;;
5379;SDS011;2713;42.680;23.310;2023-05-28T05:04:42;6.83;;;6.13;;
5379;SDS011;2713;42.680;23.310;2023-05-28T05:07:08;6.63;;;6.00;;
5379;SDS011;2713;42.680;23.310;2023-05-28T05:09:37;7.73;;;6.40;;
5379;SDS011;2713;42.680;23.310;2023-05-28T05:12:04;6.87;;;6.17;;
5379;SDS011;2713;42.680;23.310;2023-05-28T05:14:31;6.93;;;6.23;;
5379;SDS011;2713;42.680;23.310;2023-05-28T05:16:58;7.63;;;6.90;;
5379;SDS011;2713;42.680;23.310;2023-05-28T05:19:26;6.90;;;6.30;;
5379;SDS011;2713;42.680;23.310;2023-05-28T05:21:52;7.43;;;6.83;;
5379;SDS011;2713;42.680;23.310;2023-05-28T05:24:19;7.47;;;6.70;;
5379;SDS011;2713;42.680;23.310;2023-05-28T05:26:47;8.00;;;7.20;;
5379;SDS011;2713;42.680;23.310;2023-05-28T05:29:14;9.67;;;7.17;;
5379;SDS011;2713;42.680;23.310;2023-05-28T05:31:41;7.73;;;6.70;;
5379;SDS011;2713;42.680;23.310;2023-05-28T05:34:09;7.77;;;7.07;;
5379;SDS011;2713;42.680;23.310;2023-05-28T05:36:59;7.53;;;6.73;;
5379;SDS011;2713;42.680;23.310;2023-05-28T05:39:59;8.47;;;6.70;;
5379;SDS011;2713;42.680;23.310;2023-05-28T05:42:50;10.30;;;7.47;;
5379;SDS011;2713;42.680;23.310;2023-05-28T05:45:18;8.10;;;7.30;;
5379;SDS011;2713;42.680;23.310;2023-05-28T05:47:45;7.83;;;7.03;;
5379;SDS011;2713;42.680;23.310;2023-05-28T05:50:12;7.57;;;6.87;;
5379;SDS011;2713;42.680;23.310;2023-05-28T05:52:40;6.83;;;6.13;;
5379;SDS011;2713;42.680;23.310;2023-05-28T05:55:07;8.53;;;6.83;;
5379;SDS011;2713;42.680;23.310;2023-05-28T05:57:34;7.50;;;6.80;;
5379;SDS011;2713;42.680;23.310;2023-05-28T06:00:03;8.07;;;6.77;;
5379;SDS011;2713;42.680;23.310;2023-05-28T06:02:38;8.30;;;6.90;;
5379;SDS011;2713;42.680;23.310;2023-05-28T06:05:26;7.03;;;6.43;;
5379;SDS011;2713;42.680;23.310;2023-05-28T06:08:13;7.50;;;6.40;;
5379;SDS011;2713;42.680;23.310;2023-05-28T06:10:53;7.63;;;6.83;;
5379;SDS011;2713;42.680;23.310;2023-05-28T06:13:20;8.13;;;6.63;;
5379;SDS011;2713;42.680;23.310;2023-05-28T06:15:48;6.53;;;5.93;;
5379;SDS011;2713;42.680;23.310;2023-05-28T06:18:15;6.23;;;5.70;;
5379;SDS011;2713;42.680;23.310;2023-05-28T06:20:42;6.97;;;6.27;;
5379;SDS011;2713;42.680;23.310;2023-05-28T06:23:09;7.57;;;6.20;;
5379;SDS011;2713;42.680;23.310;2023-05-28T06:25:36;6.80;;;6.10;;
5379;SDS011;2713;42.680;23.310;2023-05-28T06:28:04;6.43;;;5.83;;
5379;SDS011;2713;42.680;23.310;2023-05-28T06:30:31;6.17;;;5.60;;
5379;SDS011;2713;42.680;23.310;2023-05-28T06:32:59;6.40;;;5.80;;
5379;SDS011;2713;42.680;23.310;2023-05-28T06:35:26;6.53;;;5.93;;
5379;SDS011;2713;42.680;23.310;2023-05-28T06:37:53;7.67;;;6.50;;
5379;SDS011;2713;42.680;23.310;2023-05-28T06:40:20;6.30;;;5.70;;
5379;SDS011;2713;42.680;23.310;2023-05-28T06:42:47;6.53;;;5.93;;
5379;SDS011;2713;42.680;23.310;2023-05-28T06:45:32;7.10;;;6.40;;
5379;SDS011;2713;42.680;23.310;2023-05-28T06:48:02;7.03;;;6.30;;
5379;SDS011;2713;42.680;23.310;2023-05-28T06:50:30;6.93;;;5.80;;
5379;SDS011;2713;42.680;23.310;2023-05-28T06:52:57;6.93;;;6.30;;
5379;SDS011;2713;42.680;23.310;2023-05-28T06:55:24;7.20;;;6.50;;
5379;SDS011;2713;42.680;23.310;2023-05-28T06:58:29;8.53;;;7.63;;
5379;SDS011;2713;42.680;23.310;2023-05-28T07:01:19;8.37;;;7.57;;
5379;SDS011;2713;42.680;23.310;2023-05-28T07:04:23;9.83;;;8.40;;
5379;SDS011;2713;42.680;23.310;2023-05-28T07:06:58;9.50;;;7.47;;
5379;SDS011;2713;42.680;23.310;2023-05-28T07:09:29;8.63;;;6.80;;
5379;SDS011;2713;42.680;23.310;2023-05-28T07:11:56;9.00;;;7.70;;
5379;SDS011;2713;42.680;23.310;2023-05-28T07:14:23;7.97;;;7.17;;
5379;SDS011;2713;42.680;23.310;2023-05-28T07:16:50;9.00;;;8.10;;
5379;SDS011;2713;42.680;23.310;2023-05-28T07:19:17;9.03;;;6.93;;
5379;SDS011;2713;42.680;23.310;2023-05-28T07:21:46;8.90;;;7.40;;
5379;SDS011;2713;42.680;23.310;2023-05-28T07:24:13;9.40;;;7.60;;
5379;SDS011;2713;42.680;23.310;2023-05-28T07:26:40;7.70;;;6.90;;
5379;SDS011;2713;42.680;23.310;2023-05-28T07:29:07;7.50;;;6.67;;
5379;SDS011;2713;42.680;23.310;2023-05-28T07:31:34;6.87;;;6.17;;
5379;SDS011;2713;42.680;23.310;2023-05-28T07:34:04;5.43;;;4.80;;
5379;SDS011;2713;42.680;23.310;2023-05-28T07:36:32;5.60;;;5.10;;
5379;SDS011;2713;42.680;23.310;2023-05-28T07:39:00;6.17;;;5.57;;
5379;SDS011;2713;42.680;23.310;2023-05-28T07:41:27;4.10;;;3.80;;
5379;SDS011;2713;42.680;23.310;2023-05-28T07:44:12;5.37;;;4.87;;
5379;SDS011;2713;42.680;23.310;2023-05-28T07:46:40;6.10;;;5.00;;
5379;SDS011;2713;42.680;23.310;2023-05-28T07:49:16;5.97;;;5.47;;
5379;SDS011;2713;42.680;23.310;2023-05-28T07:51:46;5.40;;;4.90;;
5379;SDS011;2713;42.680;23.310;2023-05-28T07:54:23;6.30;;;4.50;;
5379;SDS011;2713;42.680;23.310;2023-05-28T07:56:51;5.40;;;4.90;;
5379;SDS011;2713;42.680;23.310;2023-05-28T07:59:24;6.10;;;4.83;;
5379;SDS011;2713;42.680;23.310;2023-05-28T08:01:53;4.90;;;4.40;;
5379;SDS011;2713;42.680;23.310;2023-05-28T08:04:20;4.63;;;4.13;;
5379;SDS011;2713;42.680;23.310;2023-05-28T08:06:48;4.53;;;4.13;;
5379;SDS011;2713;42.680;23.310;2023-05-28T08:09:17;4.57;;;4.17;;
5379;SDS011;2713;42.680;23.310;2023-05-28T08:11:48;8.37;;;3.30;;
5379;SDS011;2713;42.680;23.310;2023-05-28T08:14:15;5.00;;;4.60;;
5379;SDS011;2713;42.680;23.310;2023-05-28T08:16:42;6.73;;;6.03;;
5379;SDS011;2713;42.680;23.310;2023-05-28T08:19:26;5.50;;;4.90;;
5379;SDS011;2713;42.680;23.310;2023-05-28T08:21:57;4.80;;;4.30;;
5379;SDS011;2713;42.680;23.310;2023-05-28T08:24:23;5.43;;;4.53;;
5379;SDS011;2713;42.680;23.310;2023-05-28T08:26:54;4.60;;;4.20;;
5379;SDS011;2713;42.680;23.310;2023-05-28T08:29:22;4.67;;;4.30;;
5379;SDS011;2713;42.680;23.310;2023-05-28T08:31:56;5.20;;;4.70;;
5379;SDS011;2713;42.680;23.310;2023-05-28T08:34:35;4.40;;;4.00;;
5379;SDS011;2713;42.680;23.310;2023-05-28T08:37:03;4.90;;;4.33;;
5379;SDS011;2713;42.680;23.310;2023-05-28T08:39:38;5.50;;;3.27;;
5379;SDS011;2713;42.680;23.310;2023-05-28T08:42:07;3.70;;;3.40;;
5379;SDS011;2713;42.680;23.310;2023-05-28T08:44:34;4.00;;;3.60;;
5379;SDS011;2713;42.680;23.310;2023-05-28T08:47:01;6.33;;;3.60;;
5379;SDS011;2713;42.680;23.310;2023-05-28T08:49:45;5.30;;;3.60;;
5379;SDS011;2713;42.680;23.310;2023-05-28T08:52:16;4.40;;;3.60;;
5379;SDS011;2713;42.680;23.310;2023-05-28T08:54:47;4.93;;;4.00;;
5379;SDS011;2713;42.680;23.310;2023-05-28T08:57:16;4.80;;;3.67;;
5379;SDS011;2713;42.680;23.310;2023-05-28T08:59:53;4.07;;;3.67;;
5379;SDS011;2713;42.680;23.310;2023-05-28T09:02:22;4.17;;;3.77;;
5379;SDS011;2713;42.680;23.310;2023-05-28T09:04:50;8.57;;;4.03;;
5379;SDS011;2713;42.680;23.310;2023-05-28T09:07:18;5.50;;;4.13;;
5379;SDS011;2713;42.680;23.310;2023-05-28T09:09:54;4.90;;;3.70;;
5379;SDS011;2713;42.680;23.310;2023-05-28T09:12:25;5.07;;;4.10;;
5379;SDS011;2713;42.680;23.310;2023-05-28T09:14:58;3.60;;;3.30;;
5379;SDS011;2713;42.680;23.310;2023-05-28T09:17:31;3.00;;;2.70;;
5379;SDS011;2713;42.680;23.310;2023-05-28T09:19:59;3.20;;;3.00;;
5379;SDS011;2713;42.680;23.310;2023-05-28T09:22:27;4.90;;;4.40;;
5379;SDS011;2713;42.680;23.310;2023-05-28T09:25:03;6.73;;;4.67;;
5379;SDS011;2713;42.680;23.310;2023-05-28T09:27:39;5.33;;;4.43;;
5379;SDS011;2713;42.680;23.310;2023-05-28T09:30:11;7.50;;;4.63;;
5379;SDS011;2713;42.680;23.310;2023-05-28T09:32:38;4.60;;;4.20;;
5379;SDS011;2713;42.680;23.310;2023-05-28T09:35:06;4.53;;;4.13;;
5379;SDS011;2713;42.680;23.310;2023-05-28T09:37:33;7.10;;;4.70;;
5379;SDS011;2713;42.680;23.310;2023-05-28T09:40:01;5.83;;;4.43;;
5379;SDS011;2713;42.680;23.310;2023-05-28T09:42:34;6.03;;;5.00;;
5379;SDS011;2713;42.680;23.310;2023-05-28T09:45:07;4.87;;;4.47;;
5379;SDS011;2713;42.680;23.310;2023-05-28T09:47:41;6.17;;;4.40;;
5379;SDS011;2713;42.680;23.310;2023-05-28T09:50:08;6.40;;;4.50;;
5379;SDS011;2713;42.680;23.310;2023-05-28T09:52:36;6.07;;;4.30;;
5379;SDS011;2713;42.680;23.310;2023-05-28T09:55:06;6.93;;;4.30;;
5379;SDS011;2713;42.680;23.310;2023-05-28T09:57:34;5.07;;;4.53;;
5379;SDS011;2713;42.680;23.310;2023-05-28T10:00:02;5.03;;;4.50;;
5379;SDS011;2713;42.680;23.310;2023-05-28T10:02:49;5.53;;;4.37;;
5379;SDS011;2713;42.680;23.310;2023-05-28T10:05:21;4.10;;;3.70;;
5379;SDS011;2713;42.680;23.310;2023-05-28T10:07:52;5.43;;;3.97;;
5379;SDS011;2713;42.680;23.310;2023-05-28T10:10:21;8.30;;;4.07;;
5379;SDS011;2713;42.680;23.310;2023-05-28T10:12:51;5.03;;;4.00;;
5379;SDS011;2713;42.680;23.310;2023-05-28T10:15:20;4.97;;;4.17;;
5379;SDS011;2713;42.680;23.310;2023-05-28T10:17:48;4.60;;;4.20;;
5379;SDS011;2713;42.680;23.310;2023-05-28T10:20:16;4.20;;;3.90;;
5379;SDS011;2713;42.680;23.310;2023-05-28T10:22:43;4.70;;;4.30;;
5379;SDS011;2713;42.680;23.310;2023-05-28T10:25:11;4.47;;;4.10;;
5379;SDS011;2713;42.680;23.310;2023-05-28T10:27:43;4.80;;;4.40;;
5379;SDS011;2713;42.680;23.310;2023-05-28T10:30:11;6.40;;;4.87;;
5379;SDS011;2713;42.680;23.310;2023-05-28T10:32:38;4.97;;;4.50;;
5379;SDS011;2713;42.680;23.310;2023-05-28T10:35:10;5.20;;;4.70;;
5379;SDS011;2713;42.680;23.310;2023-05-28T10:37:37;5.63;;;5.10;;
5379;SDS011;2713;42.680;23.310;2023-05-28T10:40:06;8.27;;;4.73;;
5379;SDS011;2713;42.680;23.310;2023-05-28T10:42:38;5.10;;;4.63;;
5379;SDS011;2713;42.680;23.310;2023-05-28T10:45:07;6.60;;;6.00;;
5379;SDS011;2713;42.680;23.310;2023-05-28T10:47:36;5.50;;;5.00;;
5379;SDS011;2713;42.680;23.310;2023-05-28T10:50:12;5.57;;;5.07;;
5379;SDS011;2713;42.680;23.310;2023-05-28T10:52:39;5.53;;;5.07;;
5379;SDS011;2713;42.680;23.310;2023-05-28T10:55:07;5.67;;;5.17;;
5379;SDS011;2713;42.680;23.310;2023-05-28T10:57:41;5.77;;;5.13;;
5379;SDS011;2713;42.680;23.310;2023-05-28T11:00:10;5.50;;;5.00;;
5379;SDS011;2713;42.680;23.310;2023-05-28T11:02:39;6.40;;;4.90;;
5379;SDS011;2713;42.680;23.310;2023-05-28T11:05:08;6.00;;;5.27;;
5379;SDS011;2713;42.680;23.310;2023-05-28T11:07:37;5.73;;;5.23;;
5379;SDS011;2713;42.680;23.310;2023-05-28T11:10:06;5.60;;;5.10;;
5379;SDS011;2713;42.680;23.310;2023-05-28T11:12:35;6.83;;;6.13;;
5379;SDS011;2713;42.680;23.310;2023-05-28T11:15:03;7.87;;;5.60;;
5379;SDS011;2713;42.680;23.310;2023-05-28T11:17:35;6.70;;;5.40;;
5379;SDS011;2713;42.680;23.310;2023-05-28T11:20:02;6.60;;;5.80;;
5379;SDS011;2713;42.680;23.310;2023-05-28T11:22:32;6.83;;;6.23;;
5379;SDS011;2713;42.680;23.310;2023-05-28T11:25:04;7.53;;;6.90;;
5379;SDS011;2713;42.680;23.310;2023-05-28T11:27:34;8.30;;;7.40;;
5379;SDS011;2713;42.680;23.310;2023-05-28T11:30:02;9.30;;;6.80;;
5379;SDS011;2713;42.680;23.310;2023-05-28T11:32:34;7.73;;;7.10;;
5379;SDS011;2713;42.680;23.310;2023-05-28T11:35:01;8.13;;;7.37;;
5379;SDS011;2713;42.680;23.310;2023-05-28T11:37:30;8.60;;;7.70;;
5379;SDS011;2713;42.680;23.310;2023-05-28T11:39:58;9.27;;;8.37;;
5379;SDS011;2713;42.680;23.310;2023-05-28T11:42:28;8.33;;;7.50;;
5379;SDS011;2713;42.680;23.310;2023-05-28T11:44:55;11.43;;;7.33;;
5379;SDS011;2713;42.680;23.310;2023-05-28T11:47:22;9.07;;;8.00;;
5379;SDS011;2713;42.680;23.310;2023-05-28T11:49:51;8.10;;;7.13;;
5379;SDS011;2713;42.680;23.310;2023-05-28T11:52:19;8.67;;;7.87;;
5379;SDS011;2713;42.680;23.310;2023-05-28T11:54:48;8.50;;;7.70;;
5379;SDS011;2713;42.680;23.310;2023-05-28T11:57:19;8.30;;;7.50;;
5379;SDS011;2713;42.680;23.310;2023-05-28T11:59:57;9.13;;;7.57;;
5379;SDS011;2713;42.680;23.310;2023-05-28T12:02:26;8.63;;;7.80;;
5379;SDS011;2713;42.680;23.310;2023-05-28T12:04:53;9.43;;;7.57;;
5379;SDS011;2713;42.680;23.310;2023-05-28T12:07:22;8.97;;;8.07;;
5379;SDS011;2713;42.680;23.310;2023-05-28T12:09:48;8.07;;;7.30;;
5379;SDS011;2713;42.680;23.310;2023-05-28T12:12:15;8.37;;;7.47;;
5379;SDS011;2713;42.680;23.310;2023-05-28T12:14:44;9.10;;;8.20;;
5379;SDS011;2713;42.680;23.310;2023-05-28T12:17:13;8.87;;;8.07;;
5379;SDS011;2713;42.680;23.310;2023-05-28T12:19:42;9.67;;;7.47;;
5379;SDS011;2713;42.680;23.310;2023-05-28T12:22:13;7.97;;;7.27;;
5379;SDS011;2713;42.680;23.310;2023-05-28T12:24:47;9.03;;;7.90;;
5379;SDS011;2713;42.680;23.310;2023-05-28T12:27:16;9.00;;;8.13;;
5379;SDS011;2713;42.680;23.310;2023-05-28T12:29:43;8.60;;;7.80;;
5379;SDS011;2713;42.680;23.310;2023-05-28T12:32:11;8.33;;;7.63;;
5379;SDS011;2713;42.680;23.310;2023-05-28T12:34:39;7.77;;;7.03;;
5379;SDS011;2713;42.680;23.310;2023-05-28T12:37:06;7.60;;;6.90;;
5379;SDS011;2713;42.680;23.310;2023-05-28T12:39:33;7.63;;;6.77;;
5379;SDS011;2713;42.680;23.310;2023-05-28T12:42:01;9.10;;;7.57;;
5379;SDS011;2713;42.680;23.310;2023-05-28T12:44:28;8.30;;;7.40;;
5379;SDS011;2713;42.680;23.310;2023-05-28T12:46:55;9.00;;;7.27;;
5379;SDS011;2713;42.680;23.310;2023-05-28T12:49:22;7.90;;;7.10;;
5379;SDS011;2713;42.680;23.310;2023-05-28T12:51:50;8.80;;;8.10;;
5379;SDS011;2713;42.680;23.310;2023-05-28T12:54:17;8.10;;;7.30;;
5379;SDS011;2713;42.680;23.310;2023-05-28T12:56:43;8.17;;;7.47;;
5379;SDS011;2713;42.680;23.310;2023-05-28T12:59:19;7.97;;;7.27;;
5379;SDS011;2713;42.680;23.310;2023-05-28T13:01:46;9.00;;;8.10;;
5379;SDS011;2713;42.680;23.310;2023-05-28T13:04:13;9.10;;;7.47;;
5379;SDS011;2713;42.680;23.310;2023-05-28T13:06:41;8.60;;;7.63;;
5379;SDS011;2713;42.680;23.310;2023-05-28T13:09:09;8.10;;;7.40;;
5379;SDS011;2713;42.680;23.310;2023-05-28T13:11:37;9.23;;;6.87;;
5379;SDS011;2713;42.680;23.310;2023-05-28T13:14:04;8.23;;;7.13;;
5379;SDS011;2713;42.680;23.310;2023-05-28T13:16:31;7.50;;;6.90;;
5379;SDS011;2713;42.680;23.310;2023-05-28T13:18:58;7.37;;;6.70;;
5379;SDS011;2713;42.680;23.310;2023-05-28T13:21:27;7.20;;;6.60;;
5379;SDS011;2713;42.680;23.310;2023-05-28T13:23:54;9.37;;;7.30;;
5379;SDS011;2713;42.680;23.310;2023-05-28T13:26:22;7.63;;;7.03;;
5379;SDS011;2713;42.680;23.310;2023-05-28T13:28:49;8.53;;;7.63;;
5379;SDS011;2713;42.680;23.310;2023-05-28T13:31:15;9.20;;;8.30;;
5379;SDS011;2713;42.680;23.310;2023-05-28T13:33:42;8.57;;;7.13;;
5379;SDS011;2713;42.680;23.310;2023-05-28T13:36:09;7.97;;;7.27;;
5379;SDS011;2713;42.680;23.310;2023-05-28T13:38:37;8.70;;;7.90;;
5379;SDS011;2713;42.680;23.310;2023-05-28T13:41:04;8.83;;;7.97;;
5379;SDS011;2713;42.680;23.310;2023-05-28T13:43:32;7.97;;;7.20;;
5379;SDS011;2713;42.680;23.310;2023-05-28T13:46:02;8.03;;;7.23;;
5379;SDS011;2713;42.680;23.310;2023-05-28T13:48:29;8.87;;;8.00;;
5379;SDS011;2713;42.680;23.310;2023-05-28T13:50:56;8.37;;;7.57;;
5379;SDS011;2713;42.680;23.310;2023-05-28T13:53:22;8.70;;;7.97;;
5379;SDS011;2713;42.680;23.310;2023-05-28T13:55:49;9.47;;;8.53;;
5379;SDS011;2713;42.680;23.310;2023-05-28T13:58:16;9.50;;;8.60;;
5379;SDS011;2713;42.680;23.310;2023-05-28T14:00:44;9.97;;;8.97;;
5379;SDS011;2713;42.680;23.310;2023-05-28T14:03:11;9.50;;;8.67;;
5379;SDS011;2713;42.680;23.310;2023-05-28T14:05:39;9.60;;;8.60;;
5379;SDS011;2713;42.680;23.310;2023-05-28T14:08:07;9.70;;;8.70;;
5379;SDS011;2713;42.680;23.310;2023-05-28T14:10:33;7.73;;;7.07;;
5379;SDS011;2713;42.680;23.310;2023-05-28T14:13:00;8.13;;;7.33;;
5379;SDS011;2713;42.680;23.310;2023-05-28T14:15:27;7.97;;;7.27;;
5379;SDS011;2713;42.680;23.310;2023-05-28T14:17:55;7.17;;;6.50;;
5379;SDS011;2713;42.680;23.310;2023-05-28T14:20:22;6.70;;;6.10;;
5379;SDS011;2713;42.680;23.310;2023-05-28T14:22:49;6.83;;;6.20;;
5379;SDS011;2713;42.680;23.310;2023-05-28T14:25:54;6.67;;;6.00;;
5379;SDS011;2713;42.680;23.310;2023-05-28T14:28:21;7.40;;;6.70;;
5379;SDS011;2713;42.680;23.310;2023-05-28T14:30:47;7.20;;;6.50;;
5379;SDS011;2713;42.680;23.310;2023-05-28T14:33:15;8.80;;;7.00;;
5379;SDS011;2713;42.680;23.310;2023-05-28T14:35:42;7.20;;;6.60;;
5379;SDS011;2713;42.680;23.310;2023-05-28T14:38:09;6.40;;;5.80;;
5379;SDS011;2713;42.680;23.310;2023-05-28T14:40:36;8.10;;;7.40;;
5379;SDS011;2713;42.680;23.310;2023-05-28T14:43:03;7.30;;;6.67;;
5379;SDS011;2713;42.680;23.310;2023-05-28T14:45:29;6.30;;;5.80;;
5379;SDS011;2713;42.680;23.310;2023-05-28T14:47:56;8.53;;;6.70;;
5379;SDS011;2713;42.680;23.310;2023-05-28T14:50:24;6.90;;;6.30;;
5379;SDS011;2713;42.680;23.310;2023-05-28T14:52:51;7.20;;;6.10;;
5379;SDS011;2713;42.680;23.310;2023-05-28T14:55:18;8.83;;;7.37;;
5379;SDS011;2713;42.680;23.310;2023-05-28T14:57:44;6.00;;;5.47;;
5379;SDS011;2713;42.680;23.310;2023-05-28T15:00:11;6.33;;;5.73;;
5379;SDS011;2713;42.680;23.310;2023-05-28T15:02:39;6.13;;;5.63;;
5379;SDS011;2713;42.680;23.310;2023-05-28T15:05:06;6.80;;;6.27;;
5379;SDS011;2713;42.680;23.310;2023-05-28T15:07:34;6.83;;;6.03;;
5379;SDS011;2713;42.680;23.310;2023-05-28T15:10:01;7.13;;;6.00;;
5379;SDS011;2713;42.680;23.310;2023-05-28T15:12:28;6.07;;;5.57;;